createdAt,value
2023-12-09T00:00:06.492Z,96.43
2023-12-09T00:01:07.205Z,96.43
2023-12-09T00:02:06.450Z,96.43
2023-12-09T00:03:06.452Z,96.43
2023-12-09T00:04:06.500Z,96.12
2023-12-09T00:05:06.403Z,95.91
2023-12-09T00:06:06.465Z,95.91
2023-12-09T00:07:06.463Z,96.01
2023-12-09T00:08:06.379Z,96.01
2023-12-09T00:09:06.424Z,95.91
2023-12-09T00:10:06.377Z,95.81
2023-12-09T00:11:06.346Z,95.60
2023-12-09T00:12:06.364Z,95.60
2023-12-09T00:13:06.338Z,95.56
2023-12-09T00:14:06.335Z,95.45
2023-12-09T00:15:06.375Z,95.45
2023-12-09T00:16:06.285Z,95.25
2023-12-09T00:17:06.287Z,95.14
2023-12-09T00:18:06.429Z,94.82
2023-12-09T00:19:06.323Z,94.72
2023-12-09T00:20:06.448Z,94.51
2023-12-09T00:21:06.255Z,94.31
2023-12-09T00:22:06.233Z,94.31
2023-12-09T00:23:06.237Z,94.31
2023-12-09T00:24:06.248Z,94.31
2023-12-09T00:25:06.232Z,94.31
2023-12-09T00:26:06.203Z,94.20
2023-12-09T00:27:06.193Z,94.20
2023-12-09T00:28:06.187Z,94.20
2023-12-09T00:29:06.194Z,94.20
2023-12-09T00:30:06.244Z,94.51
2023-12-09T00:31:06.129Z,94.82
2023-12-09T00:32:06.270Z,95.03
2023-12-09T00:33:06.211Z,95.14
2023-12-09T00:34:06.170Z,95.35
2023-12-09T00:35:06.104Z,95.60
2023-12-09T00:36:06.147Z,95.66
2023-12-09T00:37:06.081Z,95.66
2023-12-09T00:38:06.096Z,95.56
2023-12-09T00:39:06.105Z,95.45
2023-12-09T00:40:06.059Z,95.56
2023-12-09T00:41:06.033Z,95.56
2023-12-09T00:42:06.057Z,95.45
2023-12-09T00:43:06.047Z,95.45
2023-12-09T00:44:06.014Z,95.35
2023-12-09T00:45:06.040Z,95.03
2023-12-09T00:46:06.076Z,94.93
2023-12-09T00:47:05.970Z,94.82
2023-12-09T00:48:06.145Z,94.82
2023-12-09T00:49:06.059Z,94.72
2023-12-09T00:50:05.960Z,94.62
2023-12-09T00:51:05.943Z,94.62
2023-12-09T00:52:05.940Z,94.51
2023-12-09T00:53:05.902Z,94.51
2023-12-09T00:54:05.923Z,94.41
2023-12-09T00:55:05.896Z,94.31
2023-12-09T00:56:05.898Z,94.20
2023-12-09T00:57:05.910Z,94.31
2023-12-09T00:58:05.871Z,94.31
2023-12-09T00:59:05.831Z,94.31
2023-12-09T01:00:05.872Z,94.20
2023-12-09T01:01:05.889Z,94.20
2023-12-09T01:02:05.832Z,94.20
2023-12-09T01:03:05.863Z,94.31
2023-12-09T01:04:05.887Z,94.31
2023-12-09T01:05:05.806Z,94.20
2023-12-09T01:06:05.834Z,94.10
2023-12-09T01:07:05.770Z,94.31
2023-12-09T01:08:05.798Z,94.51
2023-12-09T01:09:05.777Z,94.62
2023-12-09T01:10:05.735Z,94.62
2023-12-09T01:11:05.736Z,94.72
2023-12-09T01:12:05.738Z,94.72
2023-12-09T01:13:05.721Z,94.82
2023-12-09T01:14:05.728Z,94.93
2023-12-09T01:15:05.702Z,94.93
2023-12-09T01:16:05.723Z,94.98
2023-12-09T01:17:05.712Z,95.18
2023-12-09T01:18:05.778Z,95.29
2023-12-09T01:19:05.656Z,95.39
2023-12-09T01:20:05.752Z,95.39
2023-12-09T01:21:05.711Z,95.50
2023-12-09T01:22:05.646Z,95.60
2023-12-09T01:23:05.633Z,95.70
2023-12-09T01:24:05.780Z,95.91
2023-12-09T01:25:05.608Z,96.01
2023-12-09T01:26:05.646Z,96.12
2023-12-09T01:27:05.620Z,96.22
2023-12-09T01:28:05.566Z,96.33
2023-12-09T01:29:05.646Z,96.43
2023-12-09T01:30:05.601Z,96.33
2023-12-09T01:31:05.511Z,96.33
2023-12-09T01:32:05.540Z,96.22
2023-12-09T01:33:05.788Z,96.22
2023-12-09T01:34:05.671Z,96.22
2023-12-09T01:35:05.506Z,96.12
2023-12-09T01:36:05.538Z,96.22
2023-12-09T01:37:05.505Z,96.26
2023-12-09T01:38:05.460Z,96.26
2023-12-09T01:39:05.460Z,96.37
2023-12-09T01:40:05.440Z,96.53
2023-12-09T01:41:05.438Z,96.53
2023-12-09T01:42:05.461Z,96.33
2023-12-09T01:43:05.460Z,96.12
2023-12-09T01:44:05.431Z,96.12
2023-12-09T01:45:05.429Z,96.12
2023-12-09T01:46:05.391Z,95.91
2023-12-09T01:47:05.371Z,95.70
2023-12-09T01:48:05.605Z,95.60
2023-12-09T01:49:05.536Z,95.60
2023-12-09T01:50:05.571Z,95.60
2023-12-09T01:51:05.350Z,95.60
2023-12-09T01:52:05.305Z,95.50
2023-12-09T01:53:05.322Z,95.50
2023-12-09T01:54:05.357Z,95.35
2023-12-09T01:55:05.272Z,95.25
2023-12-09T01:56:05.284Z,95.14
2023-12-09T01:57:05.273Z,95.14
2023-12-09T01:58:05.313Z,95.03
2023-12-09T01:59:05.260Z,94.93
2023-12-09T02:00:05.349Z,94.93
2023-12-09T02:01:05.258Z,95.03
2023-12-09T02:02:05.258Z,95.03
2023-12-09T02:03:05.369Z,94.82
2023-12-09T02:04:05.421Z,94.82
2023-12-09T02:05:05.196Z,94.72
2023-12-09T02:06:05.218Z,94.62
2023-12-09T02:07:05.185Z,94.62
2023-12-09T02:08:05.163Z,94.62
2023-12-09T02:09:05.201Z,94.62
2023-12-09T02:10:05.143Z,94.51
2023-12-09T02:11:05.138Z,94.62
2023-12-09T02:12:05.175Z,94.62
2023-12-09T02:13:05.132Z,94.62
2023-12-09T02:14:05.115Z,94.51
2023-12-09T02:15:05.278Z,94.47
2023-12-09T02:16:05.090Z,94.37
2023-12-09T02:17:05.074Z,94.26
2023-12-09T02:18:05.199Z,94.16
2023-12-09T02:19:05.153Z,93.85
2023-12-09T02:20:05.034Z,93.74
2023-12-09T02:21:05.124Z,93.85
2023-12-09T02:22:05.041Z,93.85
2023-12-09T02:23:04.990Z,93.95
2023-12-09T02:24:05.044Z,93.95
2023-12-09T02:25:05.005Z,94.06
2023-12-09T02:26:05.000Z,94.16
2023-12-09T02:27:05.003Z,94.26
2023-12-09T02:28:04.952Z,94.26
2023-12-09T02:29:04.931Z,94.26
2023-12-09T02:30:05.033Z,94.16
2023-12-09T02:31:04.928Z,94.06
2023-12-09T02:32:04.924Z,94.06
2023-12-09T02:33:05.037Z,94.16
2023-12-09T02:34:05.060Z,94.16
2023-12-09T02:35:04.862Z,94.37
2023-12-09T02:36:04.912Z,94.47
2023-12-09T02:37:04.866Z,94.47
2023-12-09T02:38:04.885Z,94.37
2023-12-09T02:39:04.883Z,94.37
2023-12-09T02:40:04.837Z,94.26
2023-12-09T02:41:04.836Z,94.26
2023-12-09T02:42:04.878Z,94.26
2023-12-09T02:43:04.800Z,94.16
2023-12-09T02:44:04.771Z,94.16
2023-12-09T02:45:04.806Z,94.16
2023-12-09T02:46:04.768Z,94.06
2023-12-09T02:47:04.776Z,93.95
2023-12-09T02:48:05.003Z,93.95
2023-12-09T02:49:04.866Z,93.85
2023-12-09T02:51:32.804Z,93.85
2023-12-09T02:51:38.217Z,93.74
2023-12-09T02:52:38.173Z,93.74
2023-12-09T02:53:38.158Z,93.74
2023-12-09T02:54:38.131Z,93.74
2023-12-09T02:55:38.127Z,93.85
2023-12-09T02:56:38.140Z,93.74
2023-12-09T02:57:38.150Z,93.64
2023-12-09T02:58:38.113Z,93.64
2023-12-09T02:59:38.092Z,93.64
2023-12-09T03:00:38.535Z,93.64
2023-12-09T03:01:38.094Z,93.64
2023-12-09T03:02:38.087Z,93.64
2023-12-09T03:03:38.141Z,93.54
2023-12-09T03:04:38.144Z,93.54
2023-12-09T03:05:38.039Z,93.43
2023-12-09T03:06:37.997Z,93.43
2023-12-09T03:07:38.009Z,93.43
2023-12-09T03:08:37.963Z,93.33
2023-12-09T03:09:38.042Z,93.43
2023-12-09T03:10:37.967Z,93.43
2023-12-09T03:11:37.976Z,93.43
2023-12-09T03:12:37.987Z,93.64
2023-12-09T03:13:37.949Z,93.85
2023-12-09T03:14:37.947Z,93.95
2023-12-09T03:15:37.956Z,94.06
2023-12-09T03:16:38.030Z,94.16
2023-12-09T03:17:38.089Z,94.26
2023-12-09T03:18:37.983Z,94.41
2023-12-09T03:19:37.914Z,94.47
2023-12-09T03:20:37.882Z,94.62
2023-12-09T03:21:37.854Z,94.72
2023-12-09T03:22:37.849Z,94.78
2023-12-09T03:23:37.827Z,94.78
2023-12-09T03:24:37.859Z,94.78
2023-12-09T03:25:37.813Z,94.78
2023-12-09T03:26:37.813Z,94.57
2023-12-09T03:27:37.870Z,94.57
2023-12-09T03:28:37.788Z,94.57
2023-12-09T03:29:37.772Z,94.57
2023-12-09T03:30:37.824Z,94.57
2023-12-09T03:31:37.768Z,94.57
2023-12-09T03:32:37.773Z,94.47
2023-12-09T03:33:37.922Z,94.47
2023-12-09T03:34:37.787Z,94.47
2023-12-09T03:35:37.722Z,94.68
2023-12-09T03:36:37.782Z,94.78
2023-12-09T03:37:37.728Z,94.68
2023-12-09T03:38:37.703Z,94.57
2023-12-09T03:39:37.717Z,94.26
2023-12-09T03:40:37.668Z,94.16
2023-12-09T03:41:37.648Z,94.06
2023-12-09T03:42:37.692Z,94.06
2023-12-09T03:43:37.715Z,94.16
2023-12-09T03:44:37.656Z,94.06
2023-12-09T03:45:37.653Z,94.06
2023-12-09T03:46:37.625Z,94.06
2023-12-09T03:47:37.646Z,94.16
2023-12-09T03:48:37.737Z,94.16
2023-12-09T03:49:37.728Z,94.16
2023-12-09T03:50:37.571Z,94.16
2023-12-09T03:51:37.607Z,94.16
2023-12-09T03:52:37.586Z,94.06
2023-12-09T03:53:37.540Z,93.95
2023-12-09T03:54:37.734Z,93.74
2023-12-09T03:55:37.515Z,93.85
2023-12-09T03:56:37.502Z,93.95
2023-12-09T03:57:37.904Z,93.95
2023-12-09T03:58:37.494Z,94.06
2023-12-09T03:59:37.474Z,94.16
2023-12-09T04:00:37.594Z,94.26
2023-12-09T04:01:37.549Z,94.31
2023-12-09T04:02:37.467Z,94.41
2023-12-09T04:03:37.632Z,94.51
2023-12-09T04:04:37.457Z,94.51
2023-12-09T04:05:37.486Z,94.51
2023-12-09T04:06:37.463Z,94.51
2023-12-09T04:07:37.419Z,94.51
2023-12-09T04:08:37.390Z,94.62
2023-12-09T04:09:37.444Z,94.72
2023-12-09T04:10:37.394Z,94.72
2023-12-09T04:11:37.360Z,94.62
2023-12-09T04:12:37.381Z,94.62
2023-12-09T04:13:37.332Z,94.72
2023-12-09T04:14:37.346Z,94.72
2023-12-09T04:15:37.448Z,94.72
2023-12-09T04:16:37.335Z,94.72
2023-12-09T04:17:37.351Z,94.82
2023-12-09T04:18:37.508Z,94.93
2023-12-09T04:19:37.365Z,95.03
2023-12-09T04:20:37.379Z,95.14
2023-12-09T04:21:37.312Z,95.14
2023-12-09T04:22:37.258Z,95.25
2023-12-09T04:23:37.247Z,95.25
2023-12-09T04:24:37.317Z,95.25
2023-12-09T04:25:37.222Z,95.14
2023-12-09T04:26:37.244Z,95.25
2023-12-09T04:27:37.232Z,95.25
2023-12-09T04:28:37.189Z,95.25
2023-12-09T04:29:37.198Z,95.35
2023-12-09T04:30:37.210Z,95.35
2023-12-09T04:31:37.185Z,95.25
2023-12-09T04:32:37.197Z,95.35
2023-12-09T04:33:37.223Z,95.35
2023-12-09T04:34:37.154Z,95.29
2023-12-09T04:35:37.102Z,95.39
2023-12-09T04:36:37.264Z,95.39
2023-12-09T04:37:37.101Z,95.50
2023-12-09T04:38:37.082Z,95.50
2023-12-09T04:39:37.145Z,95.39
2023-12-09T04:40:37.085Z,95.50
2023-12-09T04:41:37.071Z,95.50
2023-12-09T04:42:37.080Z,95.60
2023-12-09T04:43:37.034Z,95.60
2023-12-09T04:44:37.026Z,95.60
2023-12-09T04:45:37.057Z,95.70
2023-12-09T04:46:37.019Z,95.70
2023-12-09T04:47:37.090Z,95.76
2023-12-09T04:48:37.080Z,95.76
2023-12-09T04:49:37.199Z,95.66
2023-12-09T04:50:36.975Z,95.66
2023-12-09T04:51:36.996Z,95.66
2023-12-09T04:52:36.966Z,95.56
2023-12-09T04:53:39.861Z,95.45
2023-12-09T04:54:36.981Z,95.35
2023-12-09T04:55:36.925Z,95.14
2023-12-09T04:56:36.934Z,95.03
2023-12-09T04:57:36.987Z,94.93
2023-12-09T04:58:36.891Z,94.82
2023-12-09T04:59:36.874Z,94.82
2023-12-09T05:00:36.893Z,94.72
2023-12-09T05:01:36.848Z,94.72
2023-12-09T05:02:36.918Z,94.62
2023-12-09T05:03:36.976Z,94.62
2023-12-09T05:04:36.854Z,94.41
2023-12-09T05:05:36.884Z,94.37
2023-12-09T05:06:36.838Z,94.26
2023-12-09T05:07:36.800Z,94.26
2023-12-09T05:08:36.838Z,94.37
2023-12-09T05:09:36.792Z,94.37
2023-12-09T05:10:36.749Z,94.37
2023-12-09T05:11:36.748Z,94.26
2023-12-09T05:12:36.788Z,94.16
2023-12-09T05:13:36.738Z,94.06
2023-12-09T05:14:36.724Z,94.06
2023-12-09T05:15:36.774Z,94.16
2023-12-09T05:16:36.702Z,94.26
2023-12-09T05:17:36.707Z,94.26
2023-12-09T05:18:36.808Z,94.47
2023-12-09T05:19:36.891Z,94.57
2023-12-09T05:20:36.653Z,94.72
2023-12-09T05:21:36.977Z,94.72
2023-12-09T05:22:36.630Z,94.62
2023-12-09T05:23:36.636Z,94.51
2023-12-09T05:24:36.658Z,94.51
2023-12-09T05:25:36.616Z,94.62
2023-12-09T05:26:36.602Z,94.72
2023-12-09T05:27:36.594Z,94.72
2023-12-09T05:28:36.616Z,94.62
2023-12-09T05:29:36.566Z,94.62
2023-12-09T05:30:36.599Z,94.62
2023-12-09T05:31:36.561Z,94.51
2023-12-09T05:32:36.588Z,94.41
2023-12-09T05:33:36.718Z,94.31
2023-12-09T05:34:36.561Z,94.41
2023-12-09T05:35:36.516Z,94.62
2023-12-09T05:36:36.552Z,94.62
2023-12-09T05:37:36.525Z,94.62
2023-12-09T05:38:36.474Z,94.51
2023-12-09T05:39:36.549Z,94.41
2023-12-09T05:40:36.444Z,94.41
2023-12-09T05:41:36.445Z,94.41
2023-12-09T05:42:36.460Z,94.62
2023-12-09T05:43:36.467Z,94.62
2023-12-09T05:44:36.422Z,94.72
2023-12-09T05:45:36.460Z,94.82
2023-12-09T05:46:36.403Z,94.82
2023-12-09T05:47:36.503Z,94.72
2023-12-09T05:48:36.520Z,94.62
2023-12-09T05:49:36.443Z,94.51
2023-12-09T05:50:36.372Z,94.51
2023-12-09T05:51:36.387Z,94.72
2023-12-09T05:52:36.329Z,94.72
2023-12-09T05:53:36.325Z,94.82
2023-12-09T05:54:36.385Z,94.82
2023-12-09T05:55:36.295Z,94.72
2023-12-09T05:56:36.309Z,94.82
2023-12-09T05:57:36.394Z,94.72
2023-12-09T05:58:36.283Z,94.72
2023-12-09T05:59:36.306Z,94.72
2023-12-09T06:00:37.234Z,94.72
2023-12-09T06:01:36.284Z,94.82
2023-12-09T06:02:36.245Z,94.82
2023-12-09T06:03:36.332Z,94.82
2023-12-09T06:04:36.319Z,94.82
2023-12-09T06:05:36.251Z,94.82
2023-12-09T06:06:36.270Z,94.72
2023-12-09T06:07:36.194Z,94.72
2023-12-09T06:08:36.157Z,94.72
2023-12-09T06:09:36.286Z,94.82
2023-12-09T06:10:36.171Z,94.87
2023-12-09T06:11:36.143Z,94.93
2023-12-09T06:12:36.155Z,94.98
2023-12-09T06:13:36.095Z,95.08
2023-12-09T06:14:36.109Z,95.08
2023-12-09T06:15:36.201Z,95.18
2023-12-09T06:16:36.102Z,95.29
2023-12-09T06:17:36.178Z,95.39
2023-12-09T06:18:36.081Z,95.50
2023-12-09T06:19:36.081Z,95.50
2023-12-09T06:20:36.055Z,95.60
2023-12-09T06:21:36.109Z,95.70
2023-12-09T06:22:36.030Z,95.70
2023-12-09T06:23:36.012Z,95.81
2023-12-09T06:24:36.078Z,95.81
2023-12-09T06:25:35.983Z,95.70
2023-12-09T06:26:36.006Z,95.60
2023-12-09T06:27:35.986Z,95.50
2023-12-09T06:28:35.965Z,95.60
2023-12-09T06:29:35.935Z,95.56
2023-12-09T06:30:35.970Z,95.60
2023-12-09T06:31:35.948Z,95.45
2023-12-09T06:32:35.960Z,95.56
2023-12-09T06:33:36.042Z,95.45
2023-12-09T06:34:36.011Z,95.50
2023-12-09T06:35:35.904Z,95.45
2023-12-09T06:36:35.960Z,95.56
2023-12-09T06:37:35.914Z,95.35
2023-12-09T06:38:35.850Z,95.50
2023-12-09T06:39:35.863Z,95.60
2023-12-09T06:40:35.860Z,95.70
2023-12-09T06:41:35.844Z,95.70
2023-12-09T06:42:35.836Z,95.60
2023-12-09T06:43:35.823Z,95.70
2023-12-09T06:44:35.808Z,95.81
2023-12-09T06:45:35.806Z,95.81
2023-12-09T06:46:35.800Z,95.91
2023-12-09T06:47:35.829Z,95.91
2023-12-09T06:48:35.872Z,95.91
2023-12-09T06:49:35.793Z,95.91
2023-12-09T06:50:35.736Z,95.91
2023-12-09T06:51:35.742Z,95.87
2023-12-09T06:52:35.706Z,95.76
2023-12-09T06:53:35.691Z,95.81
2023-12-09T06:54:35.735Z,95.81
2023-12-09T06:55:35.689Z,95.91
2023-12-09T06:56:35.709Z,95.91
2023-12-09T06:57:36.050Z,95.91
2023-12-09T06:58:35.672Z,95.91
2023-12-09T06:59:35.638Z,95.91
2023-12-09T07:00:35.692Z,95.91
2023-12-09T07:01:35.661Z,96.01
2023-12-09T07:02:44.795Z,96.01
2023-12-09T07:03:35.645Z,96.01
2023-12-09T07:04:35.689Z,96.01
2023-12-09T07:05:36.346Z,96.12
2023-12-09T07:06:35.655Z,96.08
2023-12-09T07:07:35.552Z,95.97
2023-12-09T07:08:35.556Z,95.97
2023-12-09T07:09:35.581Z,95.87
2023-12-09T07:10:35.590Z,95.76
2023-12-09T07:11:35.598Z,95.56
2023-12-09T07:12:35.518Z,95.45
2023-12-09T07:13:35.510Z,95.45
2023-12-09T07:14:35.488Z,95.56
2023-12-09T07:15:35.555Z,95.56
2023-12-09T07:16:35.507Z,95.56
2023-12-09T07:17:35.468Z,95.45
2023-12-09T07:18:35.580Z,95.30
2023-12-09T07:19:35.630Z,95.30
2023-12-09T07:20:35.432Z,95.20
2023-12-09T07:21:35.738Z,95.20
2023-12-09T07:22:35.409Z,95.20
2023-12-09T07:23:35.406Z,95.30
2023-12-09T07:24:35.489Z,95.30
2023-12-09T07:25:35.386Z,95.20
2023-12-09T07:26:35.372Z,95.20
2023-12-09T07:27:35.435Z,95.20
2023-12-09T07:28:35.349Z,95.40
2023-12-09T07:29:35.329Z,95.51
2023-12-09T07:30:35.344Z,95.62
2023-12-09T07:31:35.344Z,95.72
2023-12-09T07:32:35.439Z,95.76
2023-12-09T07:33:35.408Z,95.66
2023-12-09T07:34:35.373Z,95.66
2023-12-09T07:35:35.342Z,95.97
2023-12-09T07:36:35.288Z,96.08
2023-12-09T07:37:35.323Z,96.18
2023-12-09T07:38:35.263Z,96.18
2023-12-09T07:39:35.256Z,96.28
2023-12-09T07:40:35.224Z,96.39
2023-12-09T07:41:35.221Z,96.45
2023-12-09T07:42:35.264Z,96.45
2023-12-09T07:43:37.217Z,96.55
2023-12-09T07:44:35.198Z,96.45
2023-12-09T07:45:35.212Z,96.34
2023-12-09T07:46:35.179Z,96.45
2023-12-09T07:47:35.172Z,96.34
2023-12-09T07:48:35.305Z,96.34
2023-12-09T07:49:35.182Z,96.24
2023-12-09T07:50:35.106Z,95.83
2023-12-09T07:51:35.231Z,95.40
2023-12-09T07:52:35.109Z,95.30
2023-12-09T07:53:35.073Z,95.20
2023-12-09T07:54:35.121Z,95.30
2023-12-09T07:55:35.054Z,95.20
2023-12-09T07:56:35.057Z,95.30
2023-12-09T07:57:35.138Z,95.40
2023-12-09T07:58:35.048Z,95.62
2023-12-09T07:59:35.040Z,95.62
2023-12-09T08:00:35.063Z,95.76
2023-12-09T08:01:35.068Z,95.87
2023-12-09T08:02:35.003Z,96.08
2023-12-09T08:03:35.073Z,96.28
2023-12-09T08:04:35.011Z,96.28
2023-12-09T08:05:35.026Z,96.28
2023-12-09T08:06:35.002Z,96.08
2023-12-09T08:07:34.966Z,96.08
2023-12-09T08:08:34.930Z,96.18
2023-12-09T08:09:34.940Z,96.28
2023-12-09T08:10:34.909Z,96.28
2023-12-09T08:11:34.914Z,96.39
2023-12-09T08:12:34.943Z,96.49
2023-12-09T08:13:34.894Z,96.39
2023-12-09T08:14:34.869Z,96.49
2023-12-09T08:15:34.893Z,96.59
2023-12-09T08:16:34.828Z,96.70
2023-12-09T08:17:34.851Z,96.91
2023-12-09T08:18:34.917Z,96.91
2023-12-09T08:19:35.010Z,96.95
2023-12-09T08:20:34.801Z,97.06
2023-12-09T08:21:34.859Z,97.06
2023-12-09T08:22:34.815Z,97.16
2023-12-09T08:23:34.767Z,97.16
2023-12-09T08:24:34.983Z,97.27
2023-12-09T08:25:34.786Z,97.33
2023-12-09T08:26:34.760Z,97.33
2023-12-09T08:27:34.877Z,97.43
2023-12-09T08:28:34.772Z,97.33
2023-12-09T08:29:34.772Z,97.33
2023-12-09T08:30:34.849Z,97.22
2023-12-09T08:31:34.695Z,97.22
2023-12-09T08:32:34.773Z,97.22
2023-12-09T08:33:34.788Z,97.22
2023-12-09T08:34:34.779Z,97.12
2023-12-09T08:35:34.700Z,97.01
2023-12-09T08:36:34.700Z,97.01
2023-12-09T08:37:34.653Z,97.22
2023-12-09T08:38:34.633Z,97.33
2023-12-09T08:39:34.659Z,97.43
2023-12-09T08:40:34.664Z,97.53
2023-12-09T08:41:34.586Z,97.53
2023-12-09T08:42:34.657Z,97.64
2023-12-09T08:43:34.624Z,97.74
2023-12-09T08:44:34.546Z,97.74
2023-12-09T08:45:34.577Z,97.74
2023-12-09T08:46:34.556Z,97.64
2023-12-09T08:47:34.532Z,97.43
2023-12-09T08:48:34.749Z,97.22
2023-12-09T08:49:34.572Z,97.22
2023-12-09T08:50:34.483Z,97.43
2023-12-09T08:51:34.542Z,97.43
2023-12-09T08:52:34.476Z,97.53
2023-12-09T08:53:34.498Z,97.64
2023-12-09T08:54:34.501Z,97.64
2023-12-09T08:55:34.446Z,97.74
2023-12-09T08:56:34.518Z,97.85
2023-12-09T08:57:34.430Z,97.64
2023-12-09T08:58:34.451Z,97.59
2023-12-09T08:59:34.394Z,97.70
2023-12-09T09:00:34.511Z,97.70
2023-12-09T09:01:34.471Z,97.59
2023-12-09T09:02:34.354Z,97.70
2023-12-09T09:03:34.417Z,97.59
2023-12-09T09:04:34.384Z,97.59
2023-12-09T09:05:34.379Z,97.49
2023-12-09T09:06:34.394Z,97.38
2023-12-09T09:07:34.344Z,97.28
2023-12-09T09:08:34.324Z,97.38
2023-12-09T09:09:34.360Z,97.38
2023-12-09T09:10:34.306Z,97.38
2023-12-09T09:11:34.300Z,97.38
2023-12-09T09:12:34.293Z,97.38
2023-12-09T09:13:34.270Z,97.49
2023-12-09T09:14:34.271Z,97.59
2023-12-09T09:15:34.256Z,97.49
2023-12-09T09:16:34.219Z,97.49
2023-12-09T09:17:34.245Z,97.49
2023-12-09T09:18:34.408Z,97.49
2023-12-09T09:19:34.330Z,97.49
2023-12-09T09:20:34.198Z,97.38
2023-12-09T09:21:34.193Z,97.38
2023-12-09T09:22:34.229Z,97.38
2023-12-09T09:23:34.166Z,97.38
2023-12-09T09:24:34.234Z,97.38
2023-12-09T09:25:34.138Z,97.28
2023-12-09T09:26:34.131Z,97.28
2023-12-09T09:27:34.193Z,97.28
2023-12-09T09:28:34.132Z,97.28
2023-12-09T09:29:34.114Z,97.07
2023-12-09T09:30:34.133Z,96.86
2023-12-09T09:31:34.090Z,96.86
2023-12-09T09:32:34.114Z,96.97
2023-12-09T09:33:34.179Z,96.86
2023-12-09T09:34:34.207Z,96.86
2023-12-09T09:35:34.051Z,96.76
2023-12-09T09:36:34.134Z,96.86
2023-12-09T09:37:34.019Z,96.86
2023-12-09T09:38:34.029Z,96.97
2023-12-09T09:39:34.042Z,96.97
2023-12-09T09:40:33.997Z,97.07
2023-12-09T09:41:33.980Z,97.07
2023-12-09T09:42:34.002Z,97.17
2023-12-09T09:43:33.956Z,97.17
2023-12-09T09:44:33.961Z,97.17
2023-12-09T09:45:34.044Z,97.17
2023-12-09T09:46:33.932Z,97.17
2023-12-09T09:47:34.002Z,97.17
2023-12-09T09:48:34.113Z,97.17
2023-12-09T09:49:34.054Z,97.07
2023-12-09T09:50:33.937Z,96.97
2023-12-09T09:51:33.944Z,96.97
2023-12-09T09:52:33.865Z,96.97
2023-12-09T09:53:33.864Z,96.97
2023-12-09T09:54:33.984Z,96.97
2023-12-09T09:55:33.843Z,96.86
2023-12-09T09:56:33.872Z,96.86
2023-12-09T09:57:33.895Z,96.86
2023-12-09T09:58:33.818Z,96.66
2023-12-09T09:59:33.786Z,96.66
2023-12-09T10:00:33.835Z,96.66
2023-12-09T10:01:33.878Z,96.66
2023-12-09T10:02:33.761Z,96.55
2023-12-09T10:03:33.803Z,96.45
2023-12-09T10:04:33.785Z,96.45
2023-12-09T10:05:33.738Z,96.45
2023-12-09T10:06:33.779Z,96.45
2023-12-09T10:07:33.838Z,96.45
2023-12-09T10:08:33.718Z,96.34
2023-12-09T10:09:33.783Z,96.45
2023-12-09T10:10:33.675Z,96.59
2023-12-09T10:11:33.690Z,96.70
2023-12-09T10:12:33.724Z,96.70
2023-12-09T10:13:33.664Z,96.76
2023-12-09T10:14:33.655Z,96.66
2023-12-09T10:15:33.866Z,96.45
2023-12-09T10:16:33.634Z,96.45
2023-12-09T10:17:33.681Z,96.55
2023-12-09T10:18:33.696Z,96.55
2023-12-09T10:19:33.721Z,96.66
2023-12-09T10:20:33.588Z,96.45
2023-12-09T10:21:33.586Z,96.45
2023-12-09T10:22:33.600Z,96.55
2023-12-09T10:23:33.560Z,96.66
2023-12-09T10:24:33.589Z,96.76
2023-12-09T10:25:33.532Z,96.66
2023-12-09T10:26:33.514Z,96.55
2023-12-09T10:27:33.626Z,96.55
2023-12-09T10:28:33.786Z,96.66
2023-12-09T10:29:33.486Z,96.66
2023-12-09T10:30:33.529Z,96.55
2023-12-09T10:31:33.485Z,96.61
2023-12-09T10:32:33.738Z,96.61
2023-12-09T10:33:33.629Z,96.61
2023-12-09T10:34:33.465Z,96.61
2023-12-09T10:35:33.429Z,96.41
2023-12-09T10:36:33.434Z,96.30
2023-12-09T10:37:33.412Z,96.30
2023-12-09T10:38:33.404Z,96.20
2023-12-09T10:39:33.471Z,96.09
2023-12-09T10:40:33.405Z,95.99
2023-12-09T10:41:33.378Z,95.89
2023-12-09T10:42:33.373Z,95.78
2023-12-09T10:43:33.382Z,95.78
2023-12-09T10:44:33.354Z,95.67
2023-12-09T10:45:33.363Z,95.78
2023-12-09T10:46:34.987Z,95.78
2023-12-09T10:47:33.427Z,95.78
2023-12-09T10:48:33.418Z,95.78
2023-12-09T10:49:33.398Z,95.67
2023-12-09T10:50:33.293Z,95.78
2023-12-09T10:51:33.324Z,95.78
2023-12-09T10:52:35.231Z,95.89
2023-12-09T10:53:33.248Z,95.99
2023-12-09T10:54:33.257Z,95.99
2023-12-09T10:55:33.236Z,95.99
2023-12-09T10:56:33.226Z,96.09
2023-12-09T10:57:33.242Z,96.20
2023-12-09T10:58:34.552Z,96.20
2023-12-09T10:59:33.253Z,96.09
2023-12-09T11:00:33.214Z,95.99
2023-12-09T11:01:33.239Z,95.99
2023-12-09T11:02:33.153Z,95.99
2023-12-09T11:03:33.227Z,95.99
2023-12-09T11:04:34.494Z,95.99
2023-12-09T11:05:33.170Z,96.09
2023-12-09T11:06:33.177Z,96.20
2023-12-09T11:07:33.124Z,96.20
2023-12-09T11:08:33.110Z,96.09
2023-12-09T11:09:33.139Z,95.99
2023-12-09T11:10:33.106Z,95.99
2023-12-09T11:11:33.070Z,96.04
2023-12-09T11:12:33.061Z,96.04
2023-12-09T11:13:33.084Z,96.15
2023-12-09T11:14:33.081Z,96.15
2023-12-09T11:15:33.140Z,96.15
2023-12-09T11:16:33.037Z,96.04
2023-12-09T11:17:33.141Z,96.04
2023-12-09T11:18:33.278Z,95.94
2023-12-09T11:19:33.087Z,95.84
2023-12-09T11:20:33.037Z,95.63
2023-12-09T11:21:33.053Z,95.42
2023-12-09T11:22:32.976Z,95.42
2023-12-09T11:23:32.952Z,95.42
2023-12-09T11:24:32.984Z,95.53
2023-12-09T11:25:32.995Z,95.53
2023-12-09T11:26:32.905Z,95.53
2023-12-09T11:27:32.946Z,95.53
2023-12-09T11:28:32.892Z,95.63
2023-12-09T11:29:32.894Z,95.63
2023-12-09T11:30:33.003Z,95.59
2023-12-09T11:31:32.916Z,95.84
2023-12-09T11:32:32.878Z,95.69
2023-12-09T11:33:32.948Z,95.69
2023-12-09T11:34:33.001Z,95.79
2023-12-09T11:35:32.837Z,95.69
2023-12-09T11:36:32.857Z,95.69
2023-12-09T11:37:32.836Z,95.79
2023-12-09T11:38:32.798Z,95.79
2023-12-09T11:39:32.831Z,95.79
2023-12-09T11:40:32.778Z,95.69
2023-12-09T11:41:32.782Z,95.48
2023-12-09T11:42:32.818Z,95.48
2023-12-09T11:43:32.762Z,95.38
2023-12-09T11:44:32.746Z,95.17
2023-12-09T11:45:32.856Z,95.07
2023-12-09T11:46:32.744Z,95.07
2023-12-09T11:47:32.806Z,95.21
2023-12-09T11:48:32.829Z,95.21
2023-12-09T11:49:32.800Z,95.32
2023-12-09T11:50:32.721Z,95.42
2023-12-09T11:51:32.735Z,95.53
2023-12-09T11:52:32.657Z,95.63
2023-12-09T11:53:32.657Z,95.63
2023-12-09T11:54:32.657Z,95.63
2023-12-09T11:55:32.656Z,95.63
2023-12-09T11:56:32.845Z,95.63
2023-12-09T11:57:32.630Z,95.63
2023-12-09T11:58:32.593Z,95.59
2023-12-09T11:59:32.610Z,95.63
2023-12-09T12:00:32.722Z,95.59
2023-12-09T12:01:32.599Z,95.69
2023-12-09T12:02:32.584Z,95.59
2023-12-09T12:03:32.710Z,95.48
2023-12-09T12:04:32.532Z,95.59
2023-12-09T12:05:32.531Z,95.63
2023-12-09T12:06:32.652Z,95.73
2023-12-09T12:07:32.534Z,95.73
2023-12-09T12:08:32.499Z,95.84
2023-12-09T12:09:32.496Z,95.94
2023-12-09T12:10:32.492Z,95.94
2023-12-09T12:11:32.468Z,95.84
2023-12-09T12:12:32.567Z,95.73
2023-12-09T12:13:32.435Z,95.73
2023-12-09T12:14:32.449Z,95.73
2023-12-09T12:15:32.463Z,95.84
2023-12-09T12:16:32.418Z,95.84
2023-12-09T12:17:32.442Z,95.94
2023-12-09T12:18:32.522Z,95.94
2023-12-09T12:19:32.478Z,96.04
2023-12-09T12:20:32.388Z,96.15
2023-12-09T12:21:32.411Z,96.25
2023-12-09T12:22:32.374Z,96.36
2023-12-09T12:23:33.234Z,96.47
2023-12-09T12:24:32.348Z,96.57
2023-12-09T12:25:32.320Z,96.57
2023-12-09T12:26:32.317Z,96.57
2023-12-09T12:27:32.384Z,96.61
2023-12-09T12:28:32.291Z,96.78
2023-12-09T12:29:32.275Z,96.88
2023-12-09T12:30:32.358Z,97.03
2023-12-09T12:31:32.257Z,97.13
2023-12-09T12:32:32.349Z,97.13
2023-12-09T12:33:32.593Z,97.13
2023-12-09T12:34:32.301Z,97.13
2023-12-09T12:35:32.236Z,97.13
2023-12-09T12:36:32.250Z,97.24
2023-12-09T12:37:32.239Z,97.34
2023-12-09T12:38:32.199Z,97.30
2023-12-09T12:39:32.219Z,97.30
2023-12-09T12:40:32.192Z,97.40
2023-12-09T12:41:32.180Z,97.30
2023-12-09T12:42:32.681Z,97.40
2023-12-09T12:43:32.662Z,97.40
2023-12-09T12:44:32.121Z,97.30
2023-12-09T12:45:32.152Z,97.30
2023-12-09T12:46:32.128Z,97.19
2023-12-09T12:47:32.168Z,97.19
2023-12-09T12:48:32.307Z,97.09
2023-12-09T12:49:32.124Z,97.09
2023-12-09T12:50:32.083Z,96.98
2023-12-09T12:51:32.089Z,96.98
2023-12-09T12:52:32.064Z,96.88